LEGE/GRO METAR and TAF weather

Enter ICAO airport designator
Station Type Date Time Source
LEGE METAR 2020/07/12 06:00 UTC NOAA

LEGE 120600Z 04002KT CAVOK 20/18 Q1018


Station Type Date Time Source
LEGE Decoded METAR 2020/07/12 06:00 UTC NOAA

Gerona / Costa Brava, Spain (LEGE) 41-54N 002-46E 129M
Jul 12, 2020 - 02:00 AM EDT / 2020.07.12 0600 UTC
Wind: from the NE (040 degrees) at 2 MPH (2 KT):0
Visibility: greater than 7 mile(s):0
Temperature: 68 F (20 C)
Dew Point: 64 F (18 C)
Relative Humidity: 88%
Pressure (altimeter): 30.06 in. Hg (1018 hPa)
ob: LEGE 120600Z 04002KT CAVOK 20/18 Q1018
cycle: 6

Station Type Date Time Source
LEGE TAF 2020/07/12 06:27 UTC NOAA

TAF LEGE 120500Z 1206/1306 VRB04KT 9999 FEW060 TX32/1213Z TN21/1306Z
BECMG 1210/1212 16010KT
BECMG 1218/1220 VRB04KT PROB30
TEMPO 1220/1306 2000 TSRA FEW060CB

Example: see airport list